createdAt,value
2023-04-07T00:01:46.888Z,100884.00
2023-04-07T00:04:13.505Z,100885.47
2023-04-07T00:06:40.587Z,100880.72
2023-04-07T00:09:07.067Z,100888.03
2023-04-07T00:11:33.502Z,100880.13
2023-04-07T00:13:59.942Z,100882.50
2023-04-07T00:16:26.524Z,100885.25
2023-04-07T00:18:53.103Z,100882.34
2023-04-07T00:21:19.541Z,100878.41
2023-04-07T00:23:46.984Z,100871.78
2023-04-07T00:26:13.662Z,100876.13
2023-04-07T00:28:40.198Z,100874.34
2023-04-07T00:31:06.623Z,100879.28
2023-04-07T00:33:33.079Z,100878.91
2023-04-07T00:35:59.558Z,100870.94
2023-04-07T00:38:26.024Z,100861.53
2023-04-07T00:41:00.357Z,100857.66
2023-04-07T00:43:27.399Z,100855.44
2023-04-07T00:45:54.311Z,100863.19
2023-04-07T00:48:21.662Z,100860.19
2023-04-07T00:50:48.225Z,100859.94
2023-04-07T00:53:15.380Z,100854.25
2023-04-07T00:55:41.994Z,100852.97
2023-04-07T00:58:08.438Z,100853.81
2023-04-07T01:00:49.605Z,100848.13
2023-04-07T01:03:39.872Z,100857.81
2023-04-07T01:06:08.422Z,100855.97
2023-04-07T01:08:57.236Z,100845.47
2023-04-07T01:11:26.669Z,100849.91
2023-04-07T01:13:55.078Z,100841.47
2023-04-07T01:16:30.577Z,100842.00
2023-04-07T01:19:34.949Z,100837.69
2023-04-07T01:22:06.760Z,100844.97
2023-04-07T01:25:18.019Z,100851.31
2023-04-07T01:27:53.525Z,100851.09
2023-04-07T01:30:22.915Z,100844.06
2023-04-07T01:32:53.147Z,100846.47
2023-04-07T01:35:20.694Z,100843.41
2023-04-07T01:37:50.444Z,100849.44
2023-04-07T01:40:18.125Z,100848.66
2023-04-07T01:42:45.995Z,100854.75
2023-04-07T01:45:13.329Z,100857.31
2023-04-07T01:47:40.418Z,100859.94
2023-04-07T01:50:09.331Z,100853.41
2023-04-07T01:52:37.173Z,100858.66
2023-04-07T01:55:07.527Z,100864.56
2023-04-07T01:57:33.983Z,100867.09
2023-04-07T02:00:00.598Z,100855.91
2023-04-07T02:02:27.746Z,100860.09
2023-04-07T02:05:03.088Z,100862.66
2023-04-07T02:07:39.562Z,100862.84
2023-04-07T02:10:08.437Z,100863.94
2023-04-07T02:12:38.060Z,100869.59
2023-04-07T02:15:06.637Z,100870.31
2023-04-07T02:17:35.851Z,100866.03
2023-04-07T02:20:04.160Z,100861.03
2023-04-07T02:22:31.864Z,100857.38
2023-04-07T02:24:58.382Z,100853.91
2023-04-07T02:27:24.809Z,100861.94
2023-04-07T02:29:51.377Z,100858.22
2023-04-07T02:32:17.923Z,100866.97
2023-04-07T02:34:44.327Z,100855.94
2023-04-07T02:37:10.804Z,100851.09
2023-04-07T02:39:37.279Z,100870.19
2023-04-07T02:42:03.830Z,100869.16
2023-04-07T02:44:30.326Z,100856.38
2023-04-07T02:46:56.751Z,100865.16
2023-04-07T02:49:23.140Z,100863.19
2023-04-07T02:51:49.561Z,100861.19
2023-04-07T02:54:16.086Z,100862.31
2023-04-07T02:56:42.500Z,100870.47
2023-04-07T02:59:08.899Z,100862.69
2023-04-07T03:01:36.327Z,100864.41
2023-04-07T03:04:03.140Z,100870.09
2023-04-07T03:06:29.688Z,100868.00
2023-04-07T03:08:56.773Z,100865.34
2023-04-07T03:11:23.191Z,100856.53
2023-04-07T03:13:49.590Z,100858.72
2023-04-07T03:16:16.066Z,100860.00
2023-04-07T03:18:42.509Z,100850.44
2023-04-07T03:21:08.980Z,100847.97
2023-04-07T03:23:35.501Z,100852.09
2023-04-07T03:26:02.011Z,100852.03
2023-04-07T03:28:28.430Z,100861.50
2023-04-07T03:30:54.945Z,100854.31
2023-04-07T03:33:21.498Z,100855.44
2023-04-07T03:35:47.915Z,100859.63
2023-04-07T03:38:14.363Z,100857.38
2023-04-07T03:40:40.903Z,100852.78
2023-04-07T03:43:12.455Z,100848.47
2023-04-07T03:45:38.965Z,100853.03
2023-04-07T03:48:05.547Z,100858.78
2023-04-07T03:50:31.963Z,100849.59
2023-04-07T03:52:58.422Z,100856.09
2023-04-07T03:55:25.382Z,100843.22
2023-04-07T03:57:51.805Z,100848.03
2023-04-07T04:00:18.366Z,100844.03
2023-04-07T04:02:44.925Z,100850.34
2023-04-07T04:05:11.592Z,100856.38
2023-04-07T04:07:38.090Z,100858.97
2023-04-07T04:10:04.909Z,100864.97
2023-04-07T04:12:31.389Z,100862.13
2023-04-07T04:14:57.949Z,100866.44
2023-04-07T04:17:25.512Z,100867.03
2023-04-07T04:19:51.985Z,100869.59
2023-04-07T04:22:18.450Z,100861.50
2023-04-07T04:24:44.872Z,100866.88
2023-04-07T04:27:11.334Z,100860.75
2023-04-07T04:29:38.034Z,100874.56
2023-04-07T04:32:04.638Z,100864.69
2023-04-07T04:34:31.369Z,100866.97
2023-04-07T04:36:57.878Z,100867.06
2023-04-07T04:39:24.348Z,100882.56
2023-04-07T04:41:50.958Z,100880.06
2023-04-07T04:44:17.343Z,100876.84
2023-04-07T04:46:43.796Z,100880.44
2023-04-07T04:49:10.216Z,100882.75
2023-04-07T04:51:36.693Z,100878.34
2023-04-07T04:54:04.056Z,100885.34
2023-04-07T04:56:30.689Z,100879.22
2023-04-07T04:58:57.120Z,100888.44
2023-04-07T05:01:23.524Z,100885.31
2023-04-07T05:03:50.387Z,100894.97
2023-04-07T05:06:17.048Z,100885.53
2023-04-07T05:08:43.437Z,100897.66
2023-04-07T05:11:09.812Z,100897.50
2023-04-07T05:13:36.361Z,100891.31
2023-04-07T05:16:02.813Z,100900.84
2023-04-07T05:18:29.271Z,100891.63
2023-04-07T05:20:55.662Z,100907.31
2023-04-07T05:23:22.070Z,100901.44
2023-04-07T05:25:48.483Z,100903.94
2023-04-07T05:28:14.892Z,100900.63
2023-04-07T05:30:41.299Z,100903.31
2023-04-07T05:33:07.808Z,100911.13
2023-04-07T05:35:34.266Z,100904.81
2023-04-07T05:38:00.728Z,100907.88
2023-04-07T05:40:27.145Z,100915.56
2023-04-07T05:42:53.546Z,100914.84
2023-04-07T05:45:20.142Z,100915.28
2023-04-07T05:47:49.944Z,100915.28
2023-04-07T05:50:17.470Z,100920.22
2023-04-07T05:52:43.947Z,100921.00
2023-04-07T05:55:10.748Z,100917.44
2023-04-07T05:57:37.185Z,100919.22
2023-04-07T06:00:04.638Z,100915.22
2023-04-07T06:02:31.212Z,100922.91
2023-04-07T06:04:57.789Z,100919.56
2023-04-07T06:07:24.198Z,100920.72
2023-04-07T06:09:50.863Z,100915.75
2023-04-07T06:12:17.372Z,100913.00
2023-04-07T06:14:43.871Z,100924.31
2023-04-07T06:17:10.375Z,100927.88
2023-04-07T06:19:36.818Z,100927.91
2023-04-07T06:22:03.252Z,100928.94
2023-04-07T06:24:29.681Z,100918.97
2023-04-07T06:26:56.873Z,100932.41
2023-04-07T06:29:23.428Z,100923.03
2023-04-07T06:31:49.891Z,100929.84
2023-04-07T06:34:16.654Z,100926.69
2023-04-07T06:36:43.176Z,100930.06
2023-04-07T06:39:09.707Z,100924.38
2023-04-07T06:41:36.663Z,100925.13
2023-04-07T06:44:03.073Z,100935.72
2023-04-07T06:46:29.588Z,100933.34
2023-04-07T06:48:56.127Z,100929.56
2023-04-07T06:51:22.618Z,100921.28
2023-04-07T06:53:49.390Z,100923.16
2023-04-07T06:56:16.127Z,100929.16
2023-04-07T06:58:42.598Z,100942.91
2023-04-07T07:01:09.059Z,100931.78
2023-04-07T07:03:35.677Z,100932.44
2023-04-07T07:06:03.726Z,100931.50
2023-04-07T07:08:30.814Z,100930.59
2023-04-07T07:10:57.624Z,100927.06
2023-04-07T07:13:29.049Z,100935.56
2023-04-07T07:15:55.708Z,100928.09
2023-04-07T07:18:22.299Z,100928.06
2023-04-07T07:20:48.832Z,100933.41
2023-04-07T07:23:15.379Z,100933.34
2023-04-07T07:25:42.020Z,100939.50
2023-04-07T07:28:09.570Z,100943.38
2023-04-07T07:30:36.384Z,100937.78
2023-04-07T07:33:02.869Z,100951.53
2023-04-07T07:35:29.553Z,100945.06
2023-04-07T07:37:56.212Z,100952.19
2023-04-07T07:40:22.749Z,100952.53
2023-04-07T07:42:49.252Z,100955.88
2023-04-07T07:45:17.500Z,100954.22
2023-04-07T07:47:43.991Z,100972.16
2023-04-07T07:50:10.692Z,100956.88
2023-04-07T07:52:37.425Z,100967.22
2023-04-07T07:55:04.154Z,100958.19
2023-04-07T07:57:31.825Z,100967.75
2023-04-07T07:59:58.324Z,100975.56
2023-04-07T08:02:30.733Z,100976.13
2023-04-07T08:04:57.938Z,100963.75
2023-04-07T08:07:24.741Z,100974.97
2023-04-07T08:09:51.367Z,100967.50
2023-04-07T08:12:17.766Z,100964.34
2023-04-07T08:14:44.409Z,100967.47
2023-04-07T08:17:13.442Z,100966.59
2023-04-07T08:19:39.940Z,100970.16
2023-04-07T08:22:06.486Z,100980.91
2023-04-07T08:24:33.037Z,100965.72
2023-04-07T08:26:59.661Z,100984.91
2023-04-07T08:29:26.244Z,100981.44
2023-04-07T08:31:52.817Z,100972.09
2023-04-07T08:34:21.098Z,100975.50
2023-04-07T08:36:47.740Z,100974.09
2023-04-07T08:39:14.137Z,100986.78
2023-04-07T08:41:42.348Z,100981.34
2023-04-07T08:44:10.510Z,100979.63
2023-04-07T08:46:40.970Z,100998.25
2023-04-07T08:49:13.820Z,100988.03
2023-04-07T08:51:47.404Z,100987.88
2023-04-07T08:54:18.664Z,100997.25
2023-04-07T08:56:45.492Z,100988.03
2023-04-07T08:59:14.294Z,100994.88
2023-04-07T09:01:41.853Z,100991.25
2023-04-07T09:04:10.212Z,100996.84
2023-04-07T09:06:38.002Z,100985.31
2023-04-07T09:09:08.049Z,100999.22
2023-04-07T09:11:37.480Z,100996.00
2023-04-07T09:14:04.173Z,100991.53
2023-04-07T09:16:33.585Z,100991.81
2023-04-07T09:19:00.164Z,100997.22
2023-04-07T09:21:29.890Z,101004.03
2023-04-07T09:23:56.311Z,101007.56
2023-04-07T09:26:28.200Z,101002.56
2023-04-07T09:28:58.478Z,101000.66
2023-04-07T09:31:48.187Z,101014.31
2023-04-07T09:34:36.224Z,101010.69
2023-04-07T09:37:04.635Z,101009.59
2023-04-07T09:39:31.733Z,101005.81
2023-04-07T09:41:58.869Z,101010.44
2023-04-07T09:44:26.495Z,101000.25
2023-04-07T09:46:56.299Z,101002.75
2023-04-07T09:49:24.194Z,100998.97
2023-04-07T09:51:57.239Z,100991.47
2023-04-07T09:54:32.957Z,101001.31
2023-04-07T09:57:01.953Z,100992.88
2023-04-07T09:59:29.758Z,100992.63
2023-04-07T10:01:56.965Z,100987.19
2023-04-07T10:04:25.068Z,100993.81
2023-04-07T10:06:54.315Z,100996.00
2023-04-07T10:09:25.241Z,101001.41
2023-04-07T10:11:52.958Z,100989.03
2023-04-07T10:14:21.505Z,100993.63
2023-04-07T10:16:48.882Z,100998.47
2023-04-07T10:19:16.311Z,101006.34
2023-04-07T10:21:43.954Z,101007.44
2023-04-07T10:24:42.408Z,101007.19
2023-04-07T10:27:14.442Z,100992.06
2023-04-07T10:29:43.485Z,100988.97
2023-04-07T10:32:10.096Z,101000.84
2023-04-07T10:34:54.711Z,100991.75
2023-04-07T10:37:22.642Z,100992.13
2023-04-07T10:39:51.273Z,100993.97
2023-04-07T10:42:39.410Z,100996.47
2023-04-07T10:45:10.498Z,100997.34
2023-04-07T10:48:02.949Z,100983.88
2023-04-07T10:50:29.570Z,100989.22
2023-04-07T10:53:16.337Z,100997.06
2023-04-07T10:55:46.597Z,100998.72
2023-04-07T10:58:14.008Z,101000.44
2023-04-07T11:00:40.598Z,101004.22
2023-04-07T11:03:15.118Z,101000.59
2023-04-07T11:05:42.462Z,100989.56
2023-04-07T11:08:08.929Z,100995.81
2023-04-07T11:10:36.061Z,100995.63
2023-04-07T11:13:07.770Z,100984.97
2023-04-07T11:15:37.885Z,100986.38
2023-04-07T11:18:23.756Z,100980.22
2023-04-07T11:20:54.398Z,100982.34
2023-04-07T11:23:23.878Z,100997.06
2023-04-07T11:25:52.360Z,100986.88
2023-04-07T11:28:19.510Z,100994.31
2023-04-07T11:30:52.092Z,100994.00
2023-04-07T11:33:21.356Z,100984.13
2023-04-07T11:35:56.187Z,100996.19
2023-04-07T11:38:27.897Z,100994.94
2023-04-07T11:40:56.341Z,100982.19
2023-04-07T11:43:26.455Z,101002.94
2023-04-07T11:46:12.310Z,100980.72
2023-04-07T11:48:41.085Z,101005.31
2023-04-07T11:51:16.393Z,100979.97
2023-04-07T11:53:42.898Z,100983.28
2023-04-07T11:56:16.397Z,100973.09
2023-04-07T11:58:48.880Z,100986.59
2023-04-07T12:01:15.767Z,100985.56
2023-04-07T12:03:56.108Z,100985.75
2023-04-07T12:06:38.526Z,100977.81
2023-04-07T12:09:05.798Z,100978.34
2023-04-07T12:11:33.040Z,100987.16
2023-04-07T12:13:59.573Z,100982.75
2023-04-07T12:16:26.271Z,100983.94
2023-04-07T12:18:52.966Z,100979.97
2023-04-07T12:21:19.986Z,100983.53
2023-04-07T12:23:47.681Z,100981.94
2023-04-07T12:26:14.299Z,100984.59
2023-04-07T12:28:40.799Z,100983.56
2023-04-07T12:31:07.233Z,100980.28
2023-04-07T12:33:33.635Z,100986.25
2023-04-07T12:36:03.724Z,100981.69
2023-04-07T12:38:30.233Z,100983.59
2023-04-07T12:41:03.085Z,100977.16
2023-04-07T12:43:30.991Z,100989.34
2023-04-07T12:45:57.642Z,100978.72
2023-04-07T12:48:27.320Z,100980.78
2023-04-07T12:50:53.824Z,100977.47
2023-04-07T12:53:20.523Z,100979.66
2023-04-07T12:55:50.356Z,100974.47
2023-04-07T12:58:17.567Z,100981.06
2023-04-07T13:00:44.063Z,100973.78
2023-04-07T13:03:10.553Z,100970.28
2023-04-07T13:05:37.064Z,100982.06
2023-04-07T13:08:04.242Z,100976.31
2023-04-07T13:10:30.793Z,100977.09
2023-04-07T13:12:57.219Z,100986.00
2023-04-07T13:15:24.558Z,100980.63
2023-04-07T13:17:51.234Z,100970.91
2023-04-07T13:20:20.616Z,100976.31
2023-04-07T13:22:50.647Z,100972.81
2023-04-07T13:25:22.489Z,100971.28
2023-04-07T13:27:48.917Z,100977.53
2023-04-07T13:30:16.023Z,100976.81
2023-04-07T13:32:42.503Z,100970.66
2023-04-07T13:35:09.161Z,100981.50
2023-04-07T13:37:35.956Z,100980.81
2023-04-07T13:40:02.406Z,100975.31
2023-04-07T13:42:28.821Z,100975.13
2023-04-07T13:44:55.326Z,100971.06
2023-04-07T13:47:22.535Z,100978.78
2023-04-07T13:49:49.753Z,100965.31
2023-04-07T13:52:16.587Z,100966.59
2023-04-07T13:54:43.272Z,100974.19
2023-04-07T13:57:09.813Z,100971.63
2023-04-07T13:59:36.360Z,100961.84
2023-04-07T14:02:02.872Z,100965.28
2023-04-07T14:04:29.384Z,100969.13
2023-04-07T14:06:56.189Z,100971.69
2023-04-07T14:09:22.659Z,100968.13
2023-04-07T14:11:49.200Z,100959.91
2023-04-07T14:14:15.608Z,100955.88
2023-04-07T14:16:41.994Z,100965.78
2023-04-07T14:19:08.401Z,100973.50
2023-04-07T14:21:34.811Z,100958.78
2023-04-07T14:24:01.242Z,100969.09
2023-04-07T14:26:27.697Z,100962.34
2023-04-07T14:28:54.184Z,100961.00
2023-04-07T14:31:20.925Z,100962.66
2023-04-07T14:33:47.659Z,100968.47
2023-04-07T14:36:16.623Z,100961.72
2023-04-07T14:38:43.742Z,100965.25
2023-04-07T14:41:10.712Z,100964.47
2023-04-07T14:43:37.840Z,100977.25
2023-04-07T14:46:04.310Z,100968.34
2023-04-07T14:48:30.864Z,100963.25
2023-04-07T14:51:08.123Z,100978.81
2023-04-07T14:53:35.585Z,100966.63
2023-04-07T14:56:05.152Z,100976.25
2023-04-07T14:58:32.181Z,100970.66
2023-04-07T15:00:58.606Z,100971.38
2023-04-07T15:03:25.216Z,100972.31
2023-04-07T15:05:51.819Z,100975.13
2023-04-07T15:08:18.255Z,100970.00
2023-04-07T15:10:44.657Z,100967.78
2023-04-07T15:13:11.232Z,100973.50
2023-04-07T15:15:37.709Z,100976.41
2023-04-07T15:18:04.375Z,100980.16
2023-04-07T15:20:30.960Z,100969.72
2023-04-07T15:23:00.373Z,100975.28
2023-04-07T15:25:27.019Z,100977.28
2023-04-07T15:27:53.464Z,100982.00
2023-04-07T15:30:19.981Z,100981.34
2023-04-07T15:33:00.279Z,100979.31
2023-04-07T15:35:27.506Z,100978.09
2023-04-07T15:37:54.022Z,100975.28
2023-04-07T15:40:20.968Z,100980.19
2023-04-07T15:42:47.430Z,100983.53
2023-04-07T15:45:13.996Z,100988.53
2023-04-07T15:47:40.612Z,100986.09
2023-04-07T15:50:08.076Z,100993.69
2023-04-07T15:52:34.498Z,100987.94
2023-04-07T15:55:00.978Z,100997.88
2023-04-07T15:57:27.367Z,100991.72
2023-04-07T15:59:53.765Z,100989.75
2023-04-07T16:02:20.411Z,100992.56
2023-04-07T16:04:48.082Z,100997.03
2023-04-07T16:07:14.798Z,101001.97
2023-04-07T16:09:41.282Z,100998.66
2023-04-07T16:12:07.693Z,100993.34
2023-04-07T16:14:34.181Z,101027.16
2023-04-07T16:17:00.774Z,101016.78
2023-04-07T16:19:27.719Z,101016.88
2023-04-07T16:21:54.692Z,101032.28
2023-04-07T16:24:21.808Z,101033.34
2023-04-07T16:26:50.434Z,101029.56
2023-04-07T16:29:18.297Z,101034.41
2023-04-07T16:31:45.153Z,101030.19
2023-04-07T16:34:12.318Z,101043.56
2023-04-07T16:36:39.190Z,101044.47
2023-04-07T16:39:05.670Z,101047.78
2023-04-07T16:41:32.261Z,101047.81
2023-04-07T16:43:58.908Z,101040.53
2023-04-07T16:46:29.819Z,101047.81
2023-04-07T16:48:56.425Z,101062.66
2023-04-07T16:51:24.052Z,101054.34
2023-04-07T16:53:50.878Z,101078.28
2023-04-07T16:56:21.912Z,101075.44
2023-04-07T16:58:49.492Z,101071.28
2023-04-07T17:01:16.386Z,101073.31
2023-04-07T17:03:43.010Z,101073.44
2023-04-07T17:06:09.754Z,101076.91
2023-04-07T17:08:40.661Z,101088.69
2023-04-07T17:11:13.231Z,101091.34
2023-04-07T17:13:40.286Z,101086.13
2023-04-07T17:16:07.227Z,101097.47
2023-04-07T17:18:33.896Z,101104.09
2023-04-07T17:21:00.623Z,101100.25
2023-04-07T17:23:28.340Z,101105.03
2023-04-07T17:25:54.940Z,101110.84
2023-04-07T17:28:21.419Z,101106.53
2023-04-07T17:30:47.925Z,101114.47
2023-04-07T17:33:14.373Z,101119.13
2023-04-07T17:35:40.809Z,101120.06
2023-04-07T17:38:07.318Z,101125.69
2023-04-07T17:40:34.556Z,101121.53
2023-04-07T17:43:01.029Z,101120.22
2023-04-07T17:45:27.619Z,101121.03
2023-04-07T17:47:54.845Z,101128.66
2023-04-07T17:50:21.355Z,101134.91
2023-04-07T17:52:47.770Z,101137.88
2023-04-07T17:55:14.246Z,101139.69
2023-04-07T17:57:41.516Z,101133.78
2023-04-07T18:00:08.999Z,101147.41
2023-04-07T18:02:35.955Z,101146.59
2023-04-07T18:05:03.200Z,101142.84
2023-04-07T18:07:29.710Z,101151.53
2023-04-07T18:09:56.962Z,101160.91
2023-04-07T18:12:23.954Z,101160.19
2023-04-07T18:14:50.681Z,101165.13
2023-04-07T18:17:17.069Z,101173.56
2023-04-07T18:19:43.552Z,101176.22
2023-04-07T18:22:10.237Z,101178.31
2023-04-07T18:24:37.059Z,101176.44
2023-04-07T18:27:04.026Z,101181.56
2023-04-07T18:29:33.360Z,101195.50
2023-04-07T18:31:59.752Z,101190.69
2023-04-07T18:34:26.263Z,101188.94
2023-04-07T18:36:53.747Z,101204.19
2023-04-07T18:39:20.214Z,101218.44
2023-04-07T18:41:48.216Z,101204.06
2023-04-07T18:44:15.105Z,101219.72
2023-04-07T18:46:41.619Z,101218.72
2023-04-07T18:49:08.370Z,101226.91
2023-04-07T18:51:34.905Z,101226.00
2023-04-07T18:54:01.350Z,101228.72
2023-04-07T18:56:28.362Z,101237.03
2023-04-07T18:58:54.906Z,101235.75
2023-04-07T19:01:21.685Z,101237.78
2023-04-07T19:03:48.637Z,101251.94
2023-04-07T19:06:16.435Z,101252.94
2023-04-07T19:08:43.159Z,101251.25
2023-04-07T19:11:10.198Z,101253.59
2023-04-07T19:13:36.702Z,101264.16
2023-04-07T19:16:03.640Z,101263.00
2023-04-07T19:18:31.739Z,101259.69
2023-04-07T19:20:58.296Z,101268.88
2023-04-07T19:23:25.267Z,101263.47
2023-04-07T19:25:51.731Z,101279.59
2023-04-07T19:28:18.409Z,101276.47
2023-04-07T19:30:44.851Z,101275.53
2023-04-07T19:33:11.806Z,101277.97
2023-04-07T19:35:41.286Z,101280.28
2023-04-07T19:38:07.824Z,101289.56
2023-04-07T19:40:34.638Z,101291.78
2023-04-07T19:43:01.194Z,101292.19
2023-04-07T19:45:27.840Z,101292.97
2023-04-07T19:47:54.594Z,101292.34
2023-04-07T19:50:21.227Z,101290.47
2023-04-07T19:52:47.664Z,101286.28
2023-04-07T19:55:14.348Z,101289.72
2023-04-07T19:57:41.114Z,101290.78
2023-04-07T20:00:09.038Z,101297.75
2023-04-07T20:02:36.608Z,101299.97
2023-04-07T20:05:03.915Z,101306.44
2023-04-07T20:07:31.819Z,101310.09
2023-04-07T20:09:58.267Z,101303.28
2023-04-07T20:12:24.817Z,101308.25
2023-04-07T20:14:51.609Z,101310.19
2023-04-07T20:17:18.043Z,101309.75
2023-04-07T20:19:44.461Z,101310.63
2023-04-07T20:22:11.417Z,101315.78
2023-04-07T20:24:38.862Z,101312.97
2023-04-07T20:27:05.705Z,101316.72
2023-04-07T20:29:32.149Z,101313.38
2023-04-07T20:31:58.584Z,101314.94
2023-04-07T20:34:25.334Z,101318.50
2023-04-07T20:36:51.871Z,101326.19
2023-04-07T20:39:18.355Z,101323.56
2023-04-07T20:41:45.502Z,101331.50
2023-04-07T20:44:12.143Z,101327.97
2023-04-07T20:46:38.682Z,101322.56
2023-04-07T20:49:07.625Z,101327.19
2023-04-07T20:51:36.693Z,101327.28
2023-04-07T20:54:03.938Z,101332.78
2023-04-07T20:56:30.427Z,101339.31
2023-04-07T20:58:56.826Z,101336.41
2023-04-07T21:01:23.443Z,101336.72
2023-04-07T21:03:49.994Z,101340.88
2023-04-07T21:06:16.460Z,101338.22
2023-04-07T21:08:42.919Z,101340.28
2023-04-07T21:11:09.334Z,101346.09
2023-04-07T21:13:36.037Z,101337.69
2023-04-07T21:16:04.770Z,101338.22
2023-04-07T21:18:31.919Z,101341.47
2023-04-07T21:20:59.568Z,101345.69
2023-04-07T21:23:26.021Z,101352.34
2023-04-07T21:25:52.460Z,101342.59
2023-04-07T21:28:18.884Z,101341.63
2023-04-07T21:30:45.474Z,101343.94
2023-04-07T21:33:14.141Z,101352.94
2023-04-07T21:35:40.765Z,101347.47
2023-04-07T21:38:07.223Z,101341.59
2023-04-07T21:40:33.672Z,101350.97
2023-04-07T21:43:00.080Z,101350.88
2023-04-07T21:45:26.626Z,101356.34
2023-04-07T21:47:53.220Z,101354.94
2023-04-07T21:50:19.671Z,101353.28
2023-04-07T21:52:50.486Z,101354.78
2023-04-07T21:55:20.701Z,101356.72
2023-04-07T21:57:47.350Z,101358.72
2023-04-07T22:00:14.448Z,101353.91
2023-04-07T22:02:41.433Z,101362.28
2023-04-07T22:05:08.497Z,101354.94
2023-04-07T22:07:34.902Z,101354.50
2023-04-07T22:10:01.666Z,101365.03
2023-04-07T22:12:28.084Z,101362.28
2023-04-07T22:14:54.490Z,101359.47
2023-04-07T22:17:20.990Z,101367.50
2023-04-07T22:19:47.434Z,101371.78
2023-04-07T22:22:13.892Z,101362.25
2023-04-07T22:24:40.341Z,101364.94
2023-04-07T22:27:06.767Z,101362.34
2023-04-07T22:29:33.185Z,101355.97
2023-04-07T22:31:59.652Z,101361.91
2023-04-07T22:34:26.157Z,101357.03
2023-04-07T22:36:52.577Z,101361.34
2023-04-07T22:39:19.023Z,101362.97
2023-04-07T22:41:45.628Z,101367.66
2023-04-07T22:44:12.123Z,101370.03
2023-04-07T22:46:38.605Z,101358.50
2023-04-07T22:49:05.313Z,101371.31
2023-04-07T22:51:31.879Z,101372.88
2023-04-07T22:53:58.368Z,101361.09
2023-04-07T22:56:25.511Z,101362.53
2023-04-07T22:58:52.171Z,101370.91
2023-04-07T23:01:18.912Z,101371.06
2023-04-07T23:03:45.519Z,101379.13
2023-04-07T23:06:11.989Z,101373.78
2023-04-07T23:08:38.485Z,101371.69
2023-04-07T23:11:09.785Z,101375.03
2023-04-07T23:13:36.240Z,101378.38
2023-04-07T23:16:03.855Z,101380.28
2023-04-07T23:18:31.472Z,101369.63
2023-04-07T23:20:57.880Z,101365.50
2023-04-07T23:23:24.302Z,101372.56
2023-04-07T23:25:50.821Z,101367.78
2023-04-07T23:28:17.253Z,101368.91
2023-04-07T23:30:43.755Z,101363.09
2023-04-07T23:33:10.191Z,101375.88
2023-04-07T23:35:36.619Z,101380.47
2023-04-07T23:38:03.268Z,101367.13
2023-04-07T23:40:32.930Z,101365.91
2023-04-07T23:42:59.354Z,101359.75
2023-04-07T23:45:51.873Z,101377.63
2023-04-07T23:48:21.103Z,101372.66
2023-04-07T23:54:16.637Z,101372.53
2023-04-07T23:56:43.773Z,101367.34
